createdAt,value
2023-09-27T00:00:00.200Z,4.40
2023-09-27T00:02:29.244Z,4.13
2023-09-27T00:04:56.930Z,4.50
2023-09-27T00:07:24.453Z,4.30
2023-09-27T00:09:52.586Z,4.20
2023-09-27T00:12:20.228Z,4.10
2023-09-27T00:14:47.947Z,3.97
2023-09-27T00:17:15.531Z,4.07
2023-09-27T00:19:44.339Z,4.20
2023-09-27T00:22:11.881Z,3.93
2023-09-27T00:24:40.112Z,4.70
2023-09-27T00:27:07.868Z,4.30
2023-09-27T00:29:36.194Z,4.53
2023-09-27T00:32:03.958Z,4.40
2023-09-27T00:34:31.632Z,3.70
2023-09-27T00:37:00.479Z,3.90
2023-09-27T00:39:28.078Z,4.20
2023-09-27T00:41:56.399Z,4.40
2023-09-27T00:44:24.368Z,4.53
2023-09-27T00:46:53.967Z,4.07
2023-09-27T00:49:21.686Z,4.00
2023-09-27T00:51:49.535Z,4.30
2023-09-27T00:54:18.437Z,4.10
2023-09-27T00:56:47.053Z,3.90
2023-09-27T00:59:14.539Z,3.83
2023-09-27T01:01:42.848Z,4.00
2023-09-27T01:04:10.554Z,4.23
2023-09-27T01:06:37.988Z,4.17
2023-09-27T01:09:05.512Z,4.10
2023-09-27T01:11:34.397Z,4.40
2023-09-27T01:14:01.906Z,3.90
2023-09-27T01:16:29.471Z,3.53
2023-09-27T01:19:02.073Z,4.00
2023-09-27T01:21:29.994Z,4.07
2023-09-27T01:23:59.383Z,3.97
2023-09-27T01:26:27.472Z,4.07
2023-09-27T01:28:55.153Z,4.50
2023-09-27T01:31:22.861Z,3.90
2023-09-27T01:33:50.477Z,3.73
2023-09-27T01:36:18.094Z,3.63
2023-09-27T01:38:45.938Z,3.70
2023-09-27T01:41:14.790Z,3.77
2023-09-27T01:43:42.356Z,3.63
2023-09-27T01:46:09.892Z,3.87
2023-09-27T01:48:37.414Z,4.10
2023-09-27T01:51:05.044Z,3.87
2023-09-27T01:53:32.477Z,3.90
2023-09-27T01:56:00.053Z,4.03
2023-09-27T01:58:29.028Z,4.17
2023-09-27T02:00:56.473Z,4.37
2023-09-27T02:03:24.053Z,3.93
2023-09-27T02:05:53.703Z,4.33
2023-09-27T02:08:21.378Z,3.80
2023-09-27T02:10:51.418Z,3.90
2023-09-27T02:13:19.046Z,4.03
2023-09-27T02:15:47.839Z,4.30
2023-09-27T02:18:15.603Z,3.83
2023-09-27T02:20:43.036Z,3.90
2023-09-27T02:23:10.508Z,4.47
2023-09-27T02:25:38.052Z,3.90
2023-09-27T02:28:07.441Z,3.80
2023-09-27T02:30:34.856Z,3.70
2023-09-27T02:33:03.761Z,4.73
2023-09-27T02:35:31.277Z,4.17
2023-09-27T02:37:58.911Z,3.83
2023-09-27T02:40:26.551Z,3.90
2023-09-27T02:42:53.991Z,3.90
2023-09-27T02:45:21.592Z,3.97
2023-09-27T02:47:49.907Z,4.20
2023-09-27T02:50:18.782Z,3.90
2023-09-27T02:52:46.285Z,4.17
2023-09-27T02:55:14.955Z,4.23
2023-09-27T02:57:43.722Z,3.70
2023-09-27T03:00:12.619Z,3.90
2023-09-27T03:02:40.293Z,3.80
2023-09-27T03:05:08.961Z,4.23
2023-09-27T03:07:39.294Z,3.80
2023-09-27T03:10:09.849Z,4.20
2023-09-27T03:12:38.355Z,4.17
2023-09-27T03:15:06.292Z,4.20
2023-09-27T03:17:33.864Z,4.33
2023-09-27T03:20:01.415Z,4.17
2023-09-27T03:22:29.042Z,4.00
2023-09-27T03:24:58.039Z,4.10
2023-09-27T03:27:25.972Z,3.97
2023-09-27T03:29:53.466Z,3.80
2023-09-27T03:32:21.526Z,4.30
2023-09-27T03:34:48.959Z,3.70
2023-09-27T03:37:16.731Z,4.47
2023-09-27T03:39:44.984Z,4.00
2023-09-27T03:42:13.828Z,3.80
2023-09-27T03:44:41.275Z,3.80
2023-09-27T03:47:09.525Z,4.03
2023-09-27T03:49:37.654Z,4.37
2023-09-27T03:52:05.410Z,4.17
2023-09-27T03:54:33.584Z,4.20
2023-09-27T03:57:01.131Z,4.30
2023-09-27T03:59:30.405Z,3.90
2023-09-27T04:01:57.957Z,3.90
2023-09-27T04:04:25.886Z,4.57
2023-09-27T04:06:53.470Z,4.17
2023-09-27T04:09:21.098Z,3.87
2023-09-27T04:11:48.564Z,4.07
2023-09-27T04:14:16.890Z,4.17
2023-09-27T04:16:45.873Z,4.10
2023-09-27T04:19:14.364Z,4.37
2023-09-27T04:21:41.973Z,4.00
2023-09-27T04:24:09.600Z,3.93
2023-09-27T04:26:37.100Z,3.80
2023-09-27T04:29:05.661Z,4.20
2023-09-27T04:31:35.715Z,4.50
2023-09-27T04:34:05.745Z,4.00
2023-09-27T04:36:33.342Z,4.10
2023-09-27T04:39:01.144Z,3.90
2023-09-27T04:41:29.174Z,4.10
2023-09-27T04:43:56.886Z,4.53
2023-09-27T04:46:24.463Z,4.10
2023-09-27T04:48:52.823Z,4.10
2023-09-27T04:51:21.899Z,4.27
2023-09-27T04:53:49.351Z,4.20
2023-09-27T04:56:17.007Z,4.47
2023-09-27T04:58:44.569Z,4.33
2023-09-27T05:01:12.836Z,4.80
2023-09-27T05:03:41.118Z,4.40
2023-09-27T05:06:08.746Z,4.60
2023-09-27T05:08:37.631Z,4.43
2023-09-27T05:11:05.226Z,4.80
2023-09-27T05:13:32.696Z,4.47
2023-09-27T05:16:00.216Z,3.93
2023-09-27T05:18:27.771Z,4.17
2023-09-27T05:20:55.227Z,4.40
2023-09-27T05:23:22.700Z,4.20
2023-09-27T05:25:51.496Z,4.40
2023-09-27T05:28:19.025Z,4.10
2023-09-27T05:30:46.564Z,4.63
2023-09-27T05:33:14.094Z,4.40
2023-09-27T05:35:41.592Z,4.80
2023-09-27T05:38:09.127Z,4.23
2023-09-27T05:40:36.606Z,4.40
2023-09-27T05:43:05.769Z,4.47
2023-09-27T05:45:33.218Z,4.77
2023-09-27T05:48:01.416Z,5.23
2023-09-27T05:50:29.225Z,4.60
2023-09-27T05:52:57.236Z,4.73
2023-09-27T05:55:24.937Z,4.47
2023-09-27T05:57:55.026Z,4.60
2023-09-27T06:00:27.682Z,4.60
2023-09-27T06:02:55.515Z,4.10
2023-09-27T06:05:23.417Z,5.30
2023-09-27T06:07:53.180Z,4.30
2023-09-27T06:10:20.661Z,4.63
2023-09-27T06:12:48.106Z,5.30
2023-09-27T06:15:16.042Z,5.57
2023-09-27T06:17:45.168Z,5.90
2023-09-27T06:20:13.609Z,6.07
2023-09-27T06:22:41.596Z,6.50
2023-09-27T06:25:09.521Z,6.30
2023-09-27T06:27:37.103Z,5.87
2023-09-27T06:30:05.703Z,5.80
2023-09-27T06:32:34.448Z,5.70
2023-09-27T06:35:11.569Z,5.73
2023-09-27T06:37:39.026Z,6.03
2023-09-27T06:40:08.808Z,6.43
2023-09-27T06:42:36.432Z,6.80
2023-09-27T06:45:07.024Z,6.20
2023-09-27T06:47:36.602Z,7.90
2023-09-27T06:50:05.970Z,6.60
2023-09-27T06:52:33.561Z,5.47
2023-09-27T06:55:01.112Z,6.07
2023-09-27T06:57:28.701Z,6.20
2023-09-27T06:59:56.507Z,6.80
2023-09-27T07:02:23.998Z,6.73
2023-09-27T07:04:51.443Z,6.07
2023-09-27T07:07:20.194Z,5.70
2023-09-27T07:09:48.245Z,6.00
2023-09-27T07:12:16.020Z,5.53
2023-09-27T07:14:44.303Z,5.50
2023-09-27T07:17:12.433Z,5.60
2023-09-27T07:19:39.882Z,5.37
2023-09-27T07:22:11.589Z,5.40
2023-09-27T07:24:40.363Z,5.53
2023-09-27T07:27:07.853Z,6.17
2023-09-27T07:29:35.332Z,6.07
2023-09-27T07:32:04.786Z,6.17
2023-09-27T07:34:32.588Z,6.37
2023-09-27T07:37:00.022Z,6.30
2023-09-27T07:39:28.533Z,6.17
2023-09-27T07:41:57.301Z,5.83
2023-09-27T07:44:27.275Z,5.93
2023-09-27T07:46:54.996Z,6.00
2023-09-27T07:49:24.140Z,5.40
2023-09-27T07:51:51.821Z,5.50
2023-09-27T07:54:19.383Z,5.23
2023-09-27T07:56:47.110Z,5.20
2023-09-27T07:59:15.983Z,6.03
2023-09-27T08:01:43.711Z,6.20
2023-09-27T08:04:13.900Z,5.77
2023-09-27T08:06:41.791Z,5.50
2023-09-27T08:09:14.848Z,5.50
2023-09-27T08:11:48.368Z,5.63
2023-09-27T08:14:19.610Z,6.03
2023-09-27T08:16:47.864Z,5.47
2023-09-27T08:19:15.609Z,5.67
2023-09-27T08:21:43.009Z,5.60
2023-09-27T08:24:10.438Z,5.93
2023-09-27T08:26:37.971Z,5.30
2023-09-27T08:29:06.946Z,5.77
2023-09-27T08:31:38.868Z,5.93
2023-09-27T08:34:06.369Z,5.10
2023-09-27T08:36:33.825Z,5.30
2023-09-27T08:39:01.399Z,5.47
2023-09-27T08:41:30.120Z,6.00
2023-09-27T08:43:58.629Z,5.43
2023-09-27T08:46:26.375Z,5.80
2023-09-27T08:48:57.186Z,5.30
2023-09-27T08:51:24.940Z,5.67
2023-09-27T08:53:52.340Z,5.07
2023-09-27T08:56:21.713Z,5.50
2023-09-27T08:58:50.565Z,5.20
2023-09-27T09:01:18.622Z,4.70
2023-09-27T09:03:47.456Z,5.27
2023-09-27T09:06:16.869Z,5.17
2023-09-27T09:08:44.914Z,5.50
2023-09-27T09:11:13.377Z,4.80
2023-09-27T09:14:05.523Z,4.83
2023-09-27T09:16:40.850Z,4.90
2023-09-27T09:19:29.158Z,4.40
2023-09-27T09:22:09.562Z,4.40
2023-09-27T09:24:37.180Z,4.40
2023-09-27T09:27:08.898Z,4.80
2023-09-27T09:29:46.751Z,4.43
2023-09-27T09:32:14.442Z,3.80
2023-09-27T09:34:42.334Z,4.10
2023-09-27T09:37:18.391Z,4.67
2023-09-27T09:39:45.967Z,4.20
2023-09-27T09:42:13.418Z,4.43
2023-09-27T09:44:41.547Z,4.57
2023-09-27T09:47:12.677Z,4.37
2023-09-27T09:49:42.824Z,4.10
2023-09-27T09:52:12.817Z,3.90
2023-09-27T09:54:47.874Z,3.83
2023-09-27T09:57:24.723Z,4.00
2023-09-27T10:00:04.215Z,3.97
2023-09-27T10:02:34.790Z,4.60
2023-09-27T10:05:07.403Z,4.60
2023-09-27T10:07:35.091Z,4.43
2023-09-27T10:10:04.508Z,4.10
2023-09-27T10:12:32.478Z,3.30
2023-09-27T10:15:00.227Z,3.20
2023-09-27T10:17:31.291Z,3.90
2023-09-27T10:20:13.388Z,3.57
2023-09-27T10:22:43.887Z,3.23
2023-09-27T10:25:31.894Z,3.13
2023-09-27T10:28:13.851Z,3.40
2023-09-27T10:31:00.155Z,3.20
2023-09-27T10:33:31.682Z,3.50
2023-09-27T10:36:14.110Z,3.20
2023-09-27T10:38:56.559Z,2.83
2023-09-27T10:41:43.663Z,3.00
2023-09-27T10:44:13.764Z,3.20
2023-09-27T10:46:44.699Z,3.40
2023-09-27T10:49:12.423Z,3.30
2023-09-27T10:51:41.306Z,2.80
2023-09-27T10:54:10.505Z,3.03
2023-09-27T10:56:38.192Z,2.77
2023-09-27T10:59:06.173Z,2.80
2023-09-27T11:01:36.730Z,2.47
2023-09-27T11:04:05.228Z,2.63
2023-09-27T11:06:33.546Z,2.70
2023-09-27T11:09:07.677Z,2.80
2023-09-27T11:11:35.195Z,3.10
2023-09-27T11:14:03.015Z,2.50
2023-09-27T11:16:31.127Z,2.70
2023-09-27T11:19:00.312Z,2.67
2023-09-27T11:21:28.648Z,3.00
2023-09-27T11:23:57.014Z,2.50
2023-09-27T11:26:25.924Z,2.73
2023-09-27T11:29:00.417Z,3.00
2023-09-27T11:31:29.013Z,2.77
2023-09-27T11:36:49.393Z,2.83
2023-09-27T11:39:18.794Z,2.90
2023-09-27T11:41:46.436Z,2.80
2023-09-27T11:44:18.170Z,2.90
2023-09-27T11:46:47.377Z,3.00
2023-09-27T11:49:17.060Z,2.90
2023-09-27T11:51:44.833Z,3.27
2023-09-27T11:54:14.485Z,2.80
2023-09-27T11:56:42.364Z,3.00
2023-09-27T11:59:11.694Z,2.77
2023-09-27T12:01:40.327Z,2.80
2023-09-27T12:04:08.228Z,3.10
2023-09-27T12:06:37.229Z,2.83
2023-09-27T12:09:06.416Z,3.13
2023-09-27T12:11:35.374Z,3.07
2023-09-27T12:14:02.895Z,2.83
2023-09-27T12:16:31.053Z,3.00
2023-09-27T12:18:58.533Z,3.27
2023-09-27T12:21:25.999Z,3.10
2023-09-27T12:23:53.720Z,3.00
2023-09-27T12:26:21.414Z,2.77
2023-09-27T12:28:50.199Z,2.90
2023-09-27T12:31:17.747Z,2.57
2023-09-27T12:33:45.220Z,2.97
2023-09-27T12:36:12.638Z,2.70
2023-09-27T12:38:40.103Z,3.07
2023-09-27T12:41:08.994Z,2.90
2023-09-27T12:43:36.750Z,2.90
2023-09-27T12:46:06.351Z,2.70
2023-09-27T12:48:35.281Z,2.87
2023-09-27T12:51:03.046Z,2.70
2023-09-27T12:53:30.875Z,2.80
2023-09-27T12:55:58.409Z,2.83
2023-09-27T12:58:26.138Z,2.53
2023-09-27T13:00:53.592Z,2.83
2023-09-27T13:03:23.370Z,2.37
2023-09-27T13:05:51.039Z,2.57
2023-09-27T13:08:19.515Z,2.50
2023-09-27T13:10:46.975Z,2.63
2023-09-27T13:13:14.455Z,2.57
2023-09-27T13:15:41.994Z,2.60
2023-09-27T13:18:09.765Z,2.50
2023-09-27T13:20:38.631Z,2.60
2023-09-27T13:23:06.600Z,2.30
2023-09-27T13:25:34.119Z,2.50
2023-09-27T13:28:01.555Z,2.20
2023-09-27T13:30:35.246Z,2.53
2023-09-27T13:33:04.673Z,2.50
2023-09-27T13:35:35.914Z,2.40
2023-09-27T13:38:06.829Z,2.80
2023-09-27T13:40:34.313Z,2.70
2023-09-27T13:43:01.759Z,2.57
2023-09-27T13:45:29.513Z,2.20
2023-09-27T13:47:57.077Z,2.60
2023-09-27T13:50:24.558Z,2.40
2023-09-27T13:52:52.001Z,2.50
2023-09-27T13:55:22.753Z,2.60
2023-09-27T13:57:50.243Z,2.67
2023-09-27T14:00:18.825Z,2.40
2023-09-27T14:02:46.650Z,2.70
2023-09-27T14:05:14.313Z,2.57
2023-09-27T14:07:43.279Z,2.80
2023-09-27T14:10:11.183Z,2.73
2023-09-27T14:12:39.966Z,2.63
2023-09-27T14:15:08.451Z,2.50
2023-09-27T14:17:36.113Z,2.70
2023-09-27T14:20:03.850Z,2.73
2023-09-27T14:22:31.307Z,2.70
2023-09-27T14:24:58.750Z,2.80
2023-09-27T14:27:26.256Z,2.50
2023-09-27T14:29:55.432Z,2.50
2023-09-27T14:32:23.739Z,2.60
2023-09-27T14:37:22.480Z,2.53
2023-09-27T14:39:49.989Z,2.40
2023-09-27T14:42:17.434Z,2.90
2023-09-27T14:44:44.952Z,2.47
2023-09-27T14:47:13.781Z,2.97
2023-09-27T14:49:41.300Z,2.83
2023-09-27T14:52:09.583Z,2.50
2023-09-27T14:54:37.189Z,2.53
2023-09-27T14:57:04.691Z,2.70
2023-09-27T14:59:32.151Z,2.70
2023-09-27T15:01:59.795Z,2.63
2023-09-27T15:04:29.374Z,2.83
2023-09-27T15:06:56.911Z,2.70
2023-09-27T15:09:24.547Z,2.90
2023-09-27T15:11:52.100Z,2.83
2023-09-27T15:14:20.089Z,2.50
2023-09-27T15:16:47.570Z,2.50
2023-09-27T15:19:15.484Z,2.50
2023-09-27T15:21:44.278Z,3.33
2023-09-27T15:24:12.262Z,2.43
2023-09-27T15:26:39.725Z,2.80
2023-09-27T15:29:07.220Z,2.80
2023-09-27T15:31:34.745Z,2.70
2023-09-27T15:34:02.202Z,2.97
2023-09-27T15:36:30.188Z,2.60
2023-09-27T15:38:59.180Z,2.93
2023-09-27T15:41:26.738Z,3.03
2023-09-27T15:43:55.851Z,2.90
2023-09-27T15:46:24.196Z,2.80
2023-09-27T15:48:51.754Z,2.97
2023-09-27T15:51:19.187Z,2.90
2023-09-27T15:53:46.584Z,3.10
2023-09-27T15:56:15.367Z,3.23
2023-09-27T15:58:43.012Z,3.10
2023-09-27T16:01:10.587Z,3.27
2023-09-27T16:03:38.242Z,2.70
2023-09-27T16:06:05.876Z,2.90
2023-09-27T16:08:33.357Z,2.80
2023-09-27T16:11:00.926Z,2.87
2023-09-27T16:13:29.837Z,2.93
2023-09-27T16:15:57.369Z,3.53
2023-09-27T16:18:24.957Z,3.20
2023-09-27T16:20:52.460Z,3.00
2023-09-27T16:23:20.177Z,3.17
2023-09-27T16:25:48.877Z,2.80
2023-09-27T16:28:17.372Z,3.20
2023-09-27T16:30:47.514Z,2.90
2023-09-27T16:33:15.395Z,2.87
2023-09-27T16:35:43.078Z,3.00
2023-09-27T16:38:11.181Z,3.30
2023-09-27T16:40:38.659Z,3.23
2023-09-27T16:43:06.177Z,2.97
2023-09-27T16:45:34.641Z,3.20
2023-09-27T16:48:03.883Z,3.10
2023-09-27T16:50:31.374Z,3.20
2023-09-27T16:52:58.830Z,3.30
2023-09-27T16:55:26.262Z,3.17
2023-09-27T16:57:53.720Z,3.20
2023-09-27T17:00:21.156Z,3.30
2023-09-27T17:02:48.933Z,3.10
2023-09-27T17:05:17.844Z,2.83
2023-09-27T17:07:45.417Z,2.83
2023-09-27T17:10:13.640Z,3.57
2023-09-27T17:12:41.670Z,3.07
2023-09-27T17:15:09.729Z,3.30
2023-09-27T17:17:37.273Z,3.20
2023-09-27T17:20:04.879Z,3.40
2023-09-27T17:22:33.841Z,3.87
2023-09-27T17:25:01.726Z,4.10
2023-09-27T17:27:29.162Z,4.10
2023-09-27T17:29:57.657Z,3.90
2023-09-27T17:32:25.488Z,3.60
2023-09-27T17:34:53.092Z,3.50
2023-09-27T17:37:20.524Z,3.50
2023-09-27T17:39:49.798Z,3.60
2023-09-27T17:42:17.508Z,3.40
2023-09-27T17:44:46.533Z,3.50
2023-09-27T17:47:14.120Z,4.07
2023-09-27T17:49:41.569Z,3.60
2023-09-27T17:52:09.084Z,3.60
2023-09-27T17:54:36.497Z,3.77
2023-09-27T17:57:05.684Z,4.13
2023-09-27T17:59:33.075Z,3.30
2023-09-27T18:02:00.569Z,3.67
2023-09-27T18:04:29.529Z,3.60
2023-09-27T18:06:57.103Z,3.80
2023-09-27T18:09:24.562Z,3.90
2023-09-27T18:11:52.068Z,3.63
2023-09-27T18:14:21.032Z,3.60
2023-09-27T18:16:48.617Z,3.40
2023-09-27T18:19:16.581Z,3.33
2023-09-27T18:21:46.475Z,3.70
2023-09-27T18:24:14.120Z,3.50
2023-09-27T18:26:41.684Z,3.43
2023-09-27T18:29:09.828Z,3.70
2023-09-27T18:31:39.740Z,3.93
2023-09-27T18:34:07.399Z,3.70
2023-09-27T18:36:35.042Z,3.60
2023-09-27T18:39:02.572Z,3.50
2023-09-27T18:41:30.010Z,3.53
2023-09-27T18:43:57.749Z,3.80
2023-09-27T18:46:25.779Z,3.67
2023-09-27T18:48:54.676Z,3.63
2023-09-27T18:51:23.092Z,3.70
2023-09-27T18:53:52.059Z,3.80
2023-09-27T18:56:19.930Z,3.67
2023-09-27T18:58:47.984Z,3.87
2023-09-27T19:01:15.760Z,3.87
2023-09-27T19:03:43.575Z,3.93
2023-09-27T19:06:15.369Z,3.97
2023-09-27T19:08:43.228Z,3.80
2023-09-27T19:11:10.793Z,3.57
2023-09-27T19:13:38.533Z,3.57
2023-09-27T19:16:06.914Z,3.60
2023-09-27T19:18:34.961Z,3.90
2023-09-27T19:21:02.542Z,3.33
2023-09-27T19:23:31.391Z,3.80
2023-09-27T19:25:58.908Z,3.77
2023-09-27T19:28:26.942Z,3.57
2023-09-27T19:30:54.427Z,3.60
2023-09-27T19:33:21.869Z,3.80
2023-09-27T19:35:49.759Z,3.53
2023-09-27T19:38:17.233Z,4.00
2023-09-27T19:40:46.107Z,3.67
2023-09-27T19:43:13.866Z,3.87
2023-09-27T19:45:41.353Z,3.87
2023-09-27T19:48:09.090Z,3.87
2023-09-27T19:50:37.333Z,4.23
2023-09-27T19:53:05.041Z,4.27
2023-09-27T19:55:33.176Z,3.70
2023-09-27T19:58:02.275Z,4.47
2023-09-27T20:00:30.792Z,4.43
2023-09-27T20:02:58.237Z,4.37
2023-09-27T20:05:28.055Z,4.57
2023-09-27T20:07:55.591Z,4.10
2023-09-27T20:10:24.823Z,3.93
2023-09-27T20:12:52.335Z,4.27
2023-09-27T20:15:22.573Z,3.70
2023-09-27T20:17:50.056Z,4.00
2023-09-27T20:20:17.642Z,3.90
2023-09-27T20:22:46.005Z,4.13
2023-09-27T20:25:13.630Z,4.10
2023-09-27T20:27:41.194Z,4.43
2023-09-27T20:30:09.462Z,4.30
2023-09-27T20:32:38.994Z,4.13
2023-09-27T20:35:07.032Z,4.10
2023-09-27T20:37:34.925Z,3.93
2023-09-27T20:40:05.791Z,4.40
2023-09-27T20:42:33.250Z,4.03
2023-09-27T20:45:00.711Z,4.20
2023-09-27T20:47:28.262Z,4.40
2023-09-27T20:49:57.155Z,4.20
2023-09-27T20:52:24.795Z,4.70
2023-09-27T20:54:52.233Z,4.50
2023-09-27T20:57:19.700Z,4.00
2023-09-27T20:59:47.282Z,4.10
2023-09-27T21:02:14.953Z,3.90
2023-09-27T21:04:42.520Z,4.10
2023-09-27T21:07:11.483Z,4.20
2023-09-27T21:09:38.949Z,4.20
2023-09-27T21:12:06.765Z,4.20
2023-09-27T21:14:38.067Z,4.17
2023-09-27T21:17:06.110Z,3.67
2023-09-27T21:19:34.336Z,4.17
2023-09-27T21:22:02.191Z,4.40
2023-09-27T21:24:31.199Z,4.33
2023-09-27T21:26:58.723Z,4.30
2023-09-27T21:29:26.380Z,4.30
2023-09-27T21:31:53.963Z,4.17
2023-09-27T21:34:21.515Z,4.10
2023-09-27T21:36:49.247Z,4.60
2023-09-27T21:39:16.731Z,4.50
2023-09-27T21:41:45.669Z,4.30
2023-09-27T21:44:13.145Z,4.20
2023-09-27T21:46:40.666Z,4.10
2023-09-27T21:49:08.124Z,4.50
2023-09-27T21:51:35.604Z,4.17
2023-09-27T21:54:03.055Z,4.67
2023-09-27T21:56:30.496Z,4.20
2023-09-27T21:58:59.573Z,4.47
2023-09-27T22:01:27.112Z,4.37
2023-09-27T22:03:54.662Z,4.43
2023-09-27T22:06:22.366Z,4.20
2023-09-27T22:08:53.141Z,4.57
2023-09-27T22:11:21.889Z,4.43
2023-09-27T22:13:51.231Z,4.40
2023-09-27T22:16:23.201Z,5.20
2023-09-27T22:18:50.813Z,4.23
2023-09-27T22:21:25.301Z,4.20
2023-09-27T22:23:56.959Z,4.30
2023-09-27T22:26:26.550Z,4.10
2023-09-27T22:28:56.583Z,4.70
2023-09-27T22:31:32.199Z,4.20
2023-09-27T22:34:11.069Z,4.50
2023-09-27T22:36:40.732Z,4.20
2023-09-27T22:39:16.501Z,4.53
2023-09-27T22:41:46.490Z,5.00
2023-09-27T22:44:20.118Z,4.20
2023-09-27T22:46:49.531Z,4.50
2023-09-27T22:49:17.143Z,4.47
2023-09-27T22:51:47.128Z,3.87
2023-09-27T22:54:16.620Z,4.67
2023-09-27T22:56:44.453Z,4.30
2023-09-27T22:59:12.335Z,3.93
2023-09-27T23:01:40.229Z,4.17
2023-09-27T23:04:15.058Z,4.00
2023-09-27T23:06:46.866Z,4.07
2023-09-27T23:09:21.104Z,4.10
2023-09-27T23:11:49.983Z,3.87
2023-09-27T23:14:22.696Z,4.00
2023-09-27T23:16:50.483Z,4.23
2023-09-27T23:19:19.745Z,3.93
2023-09-27T23:21:46.620Z,3.67
2023-09-27T23:24:43.348Z,3.93
2023-09-27T23:27:10.919Z,4.13
2023-09-27T23:29:41.887Z,3.30
2023-09-27T23:32:23.667Z,4.07
2023-09-27T23:34:54.866Z,3.50
2023-09-27T23:37:31.696Z,3.73
2023-09-27T23:39:59.990Z,3.67
2023-09-27T23:42:27.003Z,3.80
2023-09-27T23:44:55.806Z,3.90
2023-09-27T23:47:24.801Z,3.83
2023-09-27T23:49:58.409Z,4.00
2023-09-27T23:52:26.390Z,3.90
2023-09-27T23:54:55.713Z,3.70
2023-09-27T23:57:28.285Z,3.73
2023-09-27T23:59:56.806Z,3.30
